ADDS METAR Data INFO
IDs: Format: Raw Decoded Include TAF

Data at: 1751 UTC 21 Oct 2017

KLYH 211654Z 21006G16KT 10SM CLR 23/10 A3035 RMK AO2 SLP272 T02330100
KLYH 211554Z 00000KT 10SM CLR 22/10 A3036 RMK AO2 SLP277 T02220100
KLYH 211454Z 00000KT 10SM CLR 20/11 A3036 RMK AO2 SLP278 T02000111 50010
KLYH 211354Z 02004KT 10SM CLR 17/11 A3037 RMK AO2 SLP279 T01720111
KLYH 211254Z 03006KT 10SM CLR 14/11 A3036 RMK AO2 SLP278 T01390111
KLYH 211154Z 00000KT 10SM CLR 09/09 A3033 RMK AO2 SLP270 T00940089 10111 20083 53016
KLYH 211054Z 00000KT 10SM CLR 09/08 A3032 RMK AO2 SLP265 T00890083
KLYH 210954Z AUTO 00000KT 10SM CLR 09/09 A3030 RMK AO2 SLP256 T00940089
KLYH 210854Z AUTO 00000KT 10SM CLR 11/09 A3029 RMK AO2 SLP250 T01060094 53001
KLYH 210754Z AUTO 00000KT 10SM CLR 11/10 A3028 RMK AO2 SLP247 T01060100
KLYH 210654Z AUTO 00000KT 10SM CLR 11/10 A3029 RMK AO2 SLP250 T01060100
KLYH 210554Z AUTO 00000KT 10SM CLR 11/10 A3028 RMK AO2 SLP249 T01110100 10150 20100 51006
KLYH 210454Z AUTO 00000KT 10SM CLR 10/09 A3028 RMK AO2 SLP249 T01000089 402500061
KLYH 210354Z AUTO 00000KT 10SM CLR 11/10 A3027 RMK AO2 SLP247 T01110100
KLYH 210254Z AUTO 00000KT 10SM CLR 13/10 A3027 RMK AO2 SLP244 T01330100 53011
KLYH 210154Z 00000KT 10SM CLR 13/10 A3025 RMK AO2 SLP240 T01280100
KLYH 210054Z 00000KT 10SM CLR 13/10 A3024 RMK AO2 SLP237 T01330100
KLYH 202354Z 00000KT 10SM CLR 15/11 A3023 RMK AO2 SLP237 T01500106 10250 20144 53008
KLYH 202254Z 00000KT 10SM CLR 17/10 A3022 RMK AO2 SLP230 T01670100
KLYH 202154Z 00000KT 10SM CLR 20/11 A3021 RMK AO2 SLP226 T02000111
KLYH 202054Z 00000KT 10SM CLR 24/08 A3021 RMK AO2 SLP225 T02440083 56009
KLYH 201954Z 00000KT 10SM CLR 24/08 A3021 RMK AO2 SLP227 T02440078
KLYH 201854Z 00000KT 10SM R04/3500VP6000FT CLR 24/08 A3022 RMK AO2 SLP227 T02440078
KLYH 201754Z 00000KT 10SM R04/2600VP6000FT CLR 24/08 A3024 RMK AO2 SLP235 T02390078 10239 20072 58022
KLYH 201654Z 19006KT 10SM R04/5500VP6000FT CLR 23/07 A3027 RMK AO2 SLP246 T02330072
KLYH 201554Z VRB03KT 10SM CLR 23/09 A3029 RMK AO2 SLP253 T02280089
KLYH 201535Z 00000KT 10SM CLR 22/09 A3030 RMK AO2 T02170089
KLYH 201454Z 03003KT 10SM CLR 21/09 A3030 RMK AO2 SLP258 T02060089 51015
KLYH 201354Z 00000KT 10SM CLR 17/11 A3030 RMK AO2 SLP257 T01670111
KLYH 201254Z 00000KT 10SM CLR 12/11 A3028 RMK AO2 SLP253 T01220106
KLYH 201154Z 00000KT 10SM CLR 07/06 A3026 RMK AO2 SLP247 T00670056 10094 20061 51016
KLYH 201054Z 00000KT 10SM CLR 07/06 A3025 RMK AO2 SLP242 T00720061
KLYH 200954Z AUTO 00000KT 10SM CLR 07/06 A3023 RMK AO2 SLP234 T00720061
KLYH 200854Z AUTO VRB03KT 10SM CLR 09/07 A3021 RMK AO2 SLP226 T00940072 53001
KLYH 200754Z AUTO 00000KT 10SM CLR 07/06 A3021 RMK AO2 SLP225 T00670056
KLYH 200654Z AUTO 00000KT 10SM CLR 07/07 A3021 RMK AO2 SLP226 T00720067
KLYH 200554Z AUTO 00000KT 10SM CLR 08/07 A3021 RMK AO2 SLP226 T00830072 10133 20072 58000